KFYM/FYM METAR and TAF weather

Enter ICAO airport designator
Station Type Date Time Source
KFYM METAR 2019/08/19 01:15 UTC NOAA

KFYM 190115Z AUTO 00000KT 10SM CLR 28/19 A2999 RMK A01


Station Type Date Time Source
KFYM Decoded METAR 2019/08/19 01:15 UTC NOAA

Station name not available
Aug 18, 2019 - 09:15 PM EDT / 2019.08.19 0115 UTC
Wind: Calm:0
Visibility: 10 mile(s):0
Sky conditions: clear
Temperature: 82 F (28 C)
Dew Point: 66 F (19 C)
Relative Humidity: 58%
Pressure (altimeter): 29.99 in. Hg (1015 hPa)
ob: KFYM 190115Z AUTO 00000KT 10SM CLR 28/19 A2999 RMK A01
cycle: 1

Station Type Date Time Source
KFYM TAF 2009/08/31 19:45 UTC NOAA

METAR KFYM 311945Z AUTO 01006KT 10SM CLR 26/11 A3009
RMK AO1 T02550111 $

Example: see airport list